createdAt,value
2018-04-23T00:03:42.642Z,6.50
2018-04-23T00:08:47.868Z,6.50
2018-04-23T00:13:51.167Z,6.45
2018-04-23T00:19:02.941Z,6.68
2018-04-23T00:29:15.759Z,5.50
2018-04-23T00:34:18.661Z,5.80
2018-04-23T00:39:21.609Z,6.23
2018-04-23T00:44:24.511Z,6.00
2018-04-23T00:49:28.333Z,6.25
2018-04-23T00:54:31.296Z,5.60
2018-04-23T00:59:34.160Z,6.10
2018-04-23T01:04:37.024Z,6.20
2018-04-23T01:09:39.864Z,5.90
2018-04-23T01:14:43.171Z,6.20
2018-04-23T01:19:46.038Z,5.45
2018-04-23T01:24:49.068Z,5.70
2018-04-23T01:29:53.091Z,5.70
2018-04-23T01:34:58.123Z,6.17
2018-04-23T01:40:03.710Z,5.65
2018-04-23T01:45:06.711Z,6.07
2018-04-23T01:50:09.781Z,5.63
2018-04-23T01:55:13.096Z,5.70
2018-04-23T02:00:18.368Z,5.82
2018-04-23T02:05:24.935Z,5.73
2018-04-23T02:10:29.578Z,6.05
2018-04-23T02:15:33.085Z,6.22
2018-04-23T02:20:37.280Z,5.90
2018-04-23T02:25:45.627Z,5.63
2018-04-23T02:30:50.172Z,5.47
2018-04-23T02:35:53.366Z,5.90
2018-04-23T02:40:56.578Z,5.95
2018-04-23T02:46:00.736Z,5.55
2018-04-23T02:56:25.953Z,6.30
2018-04-23T03:01:29.574Z,5.57
2018-04-23T03:06:33.479Z,5.80
2018-04-23T03:11:36.323Z,5.68
2018-04-23T03:16:42.171Z,5.80
2018-04-23T03:21:48.789Z,6.22
2018-04-23T03:26:54.288Z,6.03
2018-04-23T03:31:59.340Z,5.70
2018-04-23T03:37:02.693Z,5.80
2018-04-23T03:42:06.600Z,6.07
2018-04-23T03:47:10.564Z,5.93
2018-04-23T03:52:13.430Z,5.62
2018-04-23T03:57:17.063Z,6.20
2018-04-23T04:02:20.059Z,6.00
2018-04-23T04:07:23.922Z,5.70
2018-04-23T04:12:39.800Z,6.33
2018-04-23T04:23:35.779Z,6.25
2018-04-23T04:28:39.739Z,6.07
2018-04-23T04:33:42.929Z,5.80
2018-04-23T04:38:46.827Z,5.70
2018-04-23T04:43:49.683Z,5.60
2018-04-23T04:48:52.536Z,5.90
2018-04-23T04:53:55.634Z,6.45
2018-04-23T04:58:58.458Z,6.60
2018-04-23T05:04:02.075Z,6.35
2018-04-23T05:09:06.195Z,6.23
2018-04-23T05:14:09.299Z,6.32
2018-04-23T05:19:12.531Z,6.10
2018-04-23T05:24:16.322Z,6.68
2018-04-23T05:29:19.236Z,6.00
2018-04-23T05:34:22.568Z,5.53
2018-04-23T05:39:25.744Z,6.20
2018-04-23T05:44:28.554Z,5.67
2018-04-23T05:49:31.338Z,6.05
2018-04-23T05:54:34.181Z,6.22
2018-04-23T05:59:37.024Z,6.30
2018-04-23T06:04:39.864Z,6.00
2018-04-23T06:09:43.443Z,6.40
2018-04-23T06:14:46.447Z,5.90
2018-04-23T06:19:49.256Z,6.35
2018-04-23T06:24:52.852Z,6.50
2018-04-23T06:29:55.965Z,6.70
2018-04-23T06:34:58.971Z,6.25
2018-04-23T06:40:01.821Z,6.97
2018-04-23T06:45:04.928Z,6.87
2018-04-23T06:50:07.746Z,7.37
2018-04-23T06:55:10.587Z,7.70
2018-04-23T07:00:13.701Z,8.50
2018-04-23T07:05:17.295Z,8.27
2018-04-23T07:10:20.138Z,7.90
2018-04-23T07:15:23.027Z,8.20
2018-04-23T07:20:26.589Z,7.93
2018-04-23T07:25:29.743Z,8.15
2018-04-23T07:30:32.810Z,8.35
2018-04-23T07:35:35.656Z,7.40
2018-04-23T07:40:39.589Z,7.97
2018-04-23T07:45:42.508Z,7.47
2018-04-23T07:50:45.336Z,7.68
2018-04-23T07:55:48.157Z,8.13
2018-04-23T08:00:51.274Z,9.10
2018-04-23T08:05:54.119Z,8.03
2018-04-23T08:10:56.938Z,8.07
2018-04-23T08:15:59.836Z,7.70
2018-04-23T08:21:02.625Z,8.57
2018-04-23T08:26:05.637Z,7.70
2018-04-23T08:31:08.812Z,8.32
2018-04-23T08:36:11.627Z,7.78
2018-04-23T08:41:14.469Z,8.18
2018-04-23T08:46:17.311Z,7.82
2018-04-23T08:51:20.213Z,8.30
2018-04-23T08:56:23.833Z,7.50
2018-04-23T09:01:27.424Z,8.13
2018-04-23T09:06:30.276Z,7.90
2018-04-23T09:11:33.467Z,8.20
2018-04-23T09:16:36.322Z,8.00
2018-04-23T09:21:39.206Z,7.75
2018-04-23T09:26:42.076Z,8.80
2018-04-23T09:31:45.300Z,8.60
2018-04-23T09:36:48.153Z,8.43
2018-04-23T09:41:50.952Z,8.63
2018-04-23T09:46:53.821Z,7.85
2018-04-23T09:51:56.847Z,8.70
2018-04-23T09:57:00.105Z,8.70
2018-04-23T10:02:03.106Z,8.30
2018-04-23T10:07:07.727Z,7.57
2018-04-23T10:12:10.547Z,7.50
2018-04-23T10:17:15.833Z,7.85
2018-04-23T10:22:19.056Z,7.20
2018-04-23T10:27:21.911Z,6.85
2018-04-23T10:32:26.031Z,6.80
2018-04-23T10:37:30.422Z,8.30
2018-04-23T10:42:33.610Z,7.12
2018-04-23T10:47:36.879Z,7.80
2018-04-23T10:52:40.800Z,6.80
2018-04-23T10:57:43.673Z,8.30
2018-04-23T11:02:46.504Z,8.00
2018-04-23T11:07:49.976Z,8.23
2018-04-23T11:12:53.396Z,8.30
2018-04-23T11:17:56.545Z,8.02
2018-04-23T11:23:00.359Z,8.30
2018-04-23T11:28:03.635Z,7.65
2018-04-23T11:33:07.611Z,7.22
2018-04-23T11:38:10.822Z,7.28
2018-04-23T11:43:14.422Z,7.80
2018-04-23T11:48:17.279Z,7.20
2018-04-23T11:53:20.113Z,8.07
2018-04-23T11:58:23.396Z,8.83
2018-04-23T12:03:26.510Z,8.60
2018-04-23T12:08:29.336Z,8.50
2018-04-23T12:13:32.302Z,8.70
2018-04-23T12:18:35.449Z,9.65
2018-04-23T12:23:38.518Z,8.73
2018-04-23T12:28:41.375Z,7.95
2018-04-23T12:33:44.186Z,7.90
2018-04-23T12:38:49.590Z,9.05
2018-04-23T12:43:52.723Z,8.75
2018-04-23T12:48:56.055Z,8.50
2018-04-23T12:54:01.838Z,7.70
2018-04-23T12:59:04.797Z,8.70
2018-04-23T13:04:07.678Z,8.75
2018-04-23T13:09:11.123Z,9.00
2018-04-23T13:14:14.956Z,9.80
2018-04-23T13:19:17.969Z,10.40
2018-04-23T13:24:21.224Z,17.55
2018-04-23T13:29:24.309Z,11.07
2018-04-23T13:34:27.490Z,10.30
2018-04-23T13:39:30.850Z,10.35
2018-04-23T13:44:34.422Z,13.33
2018-04-23T13:49:38.192Z,10.68
2018-04-23T13:54:41.360Z,10.93
2018-04-23T13:59:45.636Z,12.57
2018-04-23T14:04:48.688Z,12.60
2018-04-23T14:09:52.635Z,8.07
2018-04-23T14:14:56.592Z,9.18
2018-04-23T14:19:59.710Z,7.75
2018-04-23T14:25:02.851Z,7.12
2018-04-23T14:30:05.715Z,7.50
2018-04-23T14:35:08.596Z,7.82
2018-04-23T14:40:11.477Z,8.00
2018-04-23T14:45:15.290Z,8.60
2018-04-23T14:50:19.119Z,8.20
2018-04-23T14:55:22.832Z,8.73
2018-04-23T15:00:26.618Z,8.57
2018-04-23T15:05:29.445Z,8.60
2018-04-23T15:10:32.292Z,7.53
2018-04-23T15:15:35.358Z,7.00
2018-04-23T15:20:39.697Z,5.60
2018-04-23T15:25:42.571Z,6.37
2018-04-23T15:30:45.688Z,5.90
2018-04-23T15:35:48.487Z,5.57
2018-04-23T15:40:51.278Z,4.90
2018-04-23T15:45:54.389Z,5.75
2018-04-23T15:50:57.177Z,5.60
2018-04-23T15:56:00.242Z,5.70
2018-04-23T16:01:04.104Z,5.80
2018-04-23T16:06:07.259Z,6.20
2018-04-23T16:11:10.840Z,6.40
2018-04-23T16:16:13.672Z,6.50
2018-04-23T16:21:17.329Z,6.70
2018-04-23T16:26:20.538Z,6.60
2018-04-23T16:31:23.664Z,7.80
2018-04-23T16:36:27.310Z,7.07
2018-04-23T16:41:31.700Z,7.65
2018-04-23T16:46:34.807Z,7.50
2018-04-23T16:51:37.987Z,7.43
2018-04-23T16:56:40.887Z,7.40
2018-04-23T17:01:44.583Z,7.53
2018-04-23T17:06:47.688Z,8.90
2018-04-23T17:11:51.215Z,8.10
2018-04-23T17:16:55.104Z,7.60
2018-04-23T17:21:59.360Z,8.83
2018-04-23T17:27:02.500Z,9.38
2018-04-23T17:37:45.817Z,9.23
2018-04-23T17:42:49.354Z,7.78
2018-04-23T17:47:53.070Z,7.77
2018-04-23T17:52:57.512Z,8.10
2018-04-23T17:58:03.529Z,9.43
2018-04-23T18:03:08.426Z,9.20
2018-04-23T18:08:14.409Z,7.87
2018-04-23T18:13:17.622Z,7.40
2018-04-23T18:18:20.651Z,8.13
2018-04-23T18:23:24.325Z,8.20
2018-04-23T18:28:27.665Z,8.13
2018-04-23T18:33:31.362Z,8.57
2018-04-23T18:38:35.852Z,8.80
2018-04-23T18:43:39.787Z,10.00
2018-04-23T18:48:44.867Z,10.18
2018-04-23T18:53:47.888Z,10.45
2018-04-23T18:58:51.880Z,10.20
2018-04-23T19:03:56.234Z,9.43
2018-04-23T19:09:03.407Z,9.07
2018-04-23T19:14:07.204Z,8.98
2018-04-23T19:19:10.974Z,9.93
2018-04-23T19:24:14.636Z,10.23
2018-04-23T19:29:17.772Z,8.80
2018-04-23T19:34:20.837Z,8.43
2018-04-23T19:39:24.720Z,10.13
2018-04-23T19:44:28.519Z,11.70
2018-04-23T19:49:31.566Z,9.90
2018-04-23T19:54:34.783Z,8.60
2018-04-23T19:59:37.633Z,9.67
2018-04-23T20:04:40.886Z,10.50
2018-04-23T20:09:46.636Z,10.10
2018-04-23T20:14:49.568Z,9.60
2018-04-23T20:19:52.609Z,10.43
2018-04-23T20:24:55.492Z,10.60
2018-04-23T20:29:58.744Z,9.67
2018-04-23T20:35:01.645Z,9.10
2018-04-23T20:40:07.594Z,9.75
2018-04-23T20:45:11.812Z,8.80
2018-04-23T20:50:16.463Z,8.75
2018-04-23T20:55:19.651Z,7.65
2018-04-23T21:00:34.316Z,8.50
2018-04-23T21:05:37.945Z,7.40
2018-04-23T21:10:41.606Z,7.73
2018-04-23T21:15:48.459Z,7.23
2018-04-23T21:20:52.459Z,6.70
2018-04-23T21:25:56.484Z,7.43
2018-04-23T21:31:00.144Z,7.40
2018-04-23T21:36:02.961Z,7.93
2018-04-23T21:41:09.011Z,6.90
2018-04-23T21:46:13.562Z,6.97
2018-04-23T21:51:17.055Z,7.32
2018-04-23T21:56:20.261Z,7.07
2018-04-23T22:01:23.121Z,6.80
2018-04-23T22:06:26.087Z,7.00
2018-04-23T22:11:30.373Z,6.57
2018-04-23T22:16:35.055Z,7.57
2018-04-23T22:21:37.914Z,7.20
2018-04-23T22:26:41.538Z,6.60
2018-04-23T22:31:45.486Z,6.50
2018-04-23T22:36:50.331Z,7.73
2018-04-23T22:41:53.139Z,7.35
2018-04-23T22:46:56.357Z,6.40
2018-04-23T22:52:00.269Z,7.40
2018-04-23T22:57:03.377Z,7.47
2018-04-23T23:02:06.256Z,7.73
2018-04-23T23:07:09.079Z,7.43
2018-04-23T23:12:12.004Z,8.05
2018-04-23T23:17:15.190Z,7.93
2018-04-23T23:22:18.349Z,7.78
2018-04-23T23:27:21.625Z,8.60
2018-04-23T23:32:24.570Z,8.98
2018-04-23T23:37:27.471Z,8.50
2018-04-23T23:42:30.576Z,8.60
2018-04-23T23:47:33.527Z,8.90
2018-04-23T23:52:36.602Z,8.80
2018-04-23T23:57:40.501Z,9.57
